Decoded Metar for OIFM (ESFAHAN in IRAN) (IATA:N/A) | Meteo·Mobile Aviation Weather
aviador You're here:

OIFM Decoded Metar

ESFAHAN in IRAN
Report Time2018-09-22 15:30:00
UTC Time2018-09-22 15:40:11
Flight Rules ifr IFR
Wind320° at 19 kt
W.Decomp.*RWY 26: 10.1 kt HW 16.1 kt RCW
W.Rank320° ranks 11
Current wind is above 320° avg. (6.9)
Visibility4000 m
Phenomena:Sand
Clouds:Few CB 035 Hf
Expected CloudBase > 9,600 ft AGL from Temp-Dew spread
CeilingNone
Temp26°C (ISA +21)
Dew Point02°C (21% RH)
AAT17.5°C
QNH1023 hPa
Density Alt7,224 ft
Elevation5,059 ft
Report Wrong Elevation
Raw Report
METAR OIFM 221530Z 32019KT 4000 SA FEW035CB 26/02 Q1023 A3021=

Extra information for OIFM:More info

Metar Taf Metar & Taf Last 4 Metars F.Rules Stats Wind Profile Meteogram Temp Stats Airport Information Weather charts Add Link Nearby VenuesMetar ALERT Operation Metar Decoded Social comments